sensor_id;sensor_type;location;lat;lon;timestamp;temperature;humidity
45803;DHT22;31504;51.716;9.184;2022-12-08T00:01:46;19.60;44.50
45803;DHT22;31504;51.716;9.184;2022-12-08T00:04:46;19.60;43.80
45803;DHT22;31504;51.716;9.184;2022-12-08T00:08:07;19.60;43.80
45803;DHT22;31504;51.716;9.184;2022-12-08T00:11:27;19.70;43.80
45803;DHT22;31504;51.716;9.184;2022-12-08T00:17:34;19.60;43.70
45803;DHT22;31504;51.716;9.184;2022-12-08T00:20:34;19.60;43.70
45803;DHT22;31504;51.716;9.184;2022-12-08T00:23:35;19.70;43.70
45803;DHT22;31504;51.716;9.184;2022-12-08T00:26:35;19.70;43.60
45803;DHT22;31504;51.716;9.184;2022-12-08T00:29:36;19.60;43.60
45803;DHT22;31504;51.716;9.184;2022-12-08T00:32:36;19.60;43.60
45803;DHT22;31504;51.716;9.184;2022-12-08T00:35:37;19.60;43.60
45803;DHT22;31504;51.716;9.184;2022-12-08T00:38:38;19.70;43.60
45803;DHT22;31504;51.716;9.184;2022-12-08T00:41:38;19.60;43.60
45803;DHT22;31504;51.716;9.184;2022-12-08T00:44:58;19.60;43.60
45803;DHT22;31504;51.716;9.184;2022-12-08T00:47:58;19.60;43.60
45803;DHT22;31504;51.716;9.184;2022-12-08T00:50:59;19.70;43.50
45803;DHT22;31504;51.716;9.184;2022-12-08T00:53:59;19.60;43.50
45803;DHT22;31504;51.716;9.184;2022-12-08T00:57:00;19.60;43.40
45803;DHT22;31504;51.716;9.184;2022-12-08T01:00:00;19.70;43.50
45803;DHT22;31504;51.716;9.184;2022-12-08T01:03:01;19.70;43.40
45803;DHT22;31504;51.716;9.184;2022-12-08T01:06:02;19.60;43.40
45803;DHT22;31504;51.716;9.184;2022-12-08T01:09:03;19.70;43.40
45803;DHT22;31504;51.716;9.184;2022-12-08T01:12:04;19.70;43.50
45803;DHT22;31504;51.716;9.184;2022-12-08T01:15:05;19.60;43.40
45803;DHT22;31504;51.716;9.184;2022-12-08T01:18:05;19.60;43.30
45803;DHT22;31504;51.716;9.184;2022-12-08T01:21:06;19.70;43.30
45803;DHT22;31504;51.716;9.184;2022-12-08T01:24:09;19.70;43.30
45803;DHT22;31504;51.716;9.184;2022-12-08T01:27:10;19.60;43.30
45803;DHT22;31504;51.716;9.184;2022-12-08T01:30:10;19.60;43.30
45803;DHT22;31504;51.716;9.184;2022-12-08T01:33:12;19.70;43.30
45803;DHT22;31504;51.716;9.184;2022-12-08T01:36:20;19.60;43.20
45803;DHT22;31504;51.716;9.184;2022-12-08T01:39:21;19.60;43.30
45803;DHT22;31504;51.716;9.184;2022-12-08T01:42:22;19.70;43.30
45803;DHT22;31504;51.716;9.184;2022-12-08T01:45:26;19.60;43.20
45803;DHT22;31504;51.716;9.184;2022-12-08T01:48:27;19.70;43.20
45803;DHT22;31504;51.716;9.184;2022-12-08T01:51:27;19.60;43.20
45803;DHT22;31504;51.716;9.184;2022-12-08T01:54:35;19.60;43.20
45803;DHT22;31504;51.716;9.184;2022-12-08T01:57:38;19.60;43.20
45803;DHT22;31504;51.716;9.184;2022-12-08T02:00:40;19.70;43.20
45803;DHT22;31504;51.716;9.184;2022-12-08T02:03:49;19.60;43.10
45803;DHT22;31504;51.716;9.184;2022-12-08T02:06:50;19.60;43.10
45803;DHT22;31504;51.716;9.184;2022-12-08T02:09:52;19.60;43.10
45803;DHT22;31504;51.716;9.184;2022-12-08T02:12:52;19.60;43.10
45803;DHT22;31504;51.716;9.184;2022-12-08T02:16:03;19.60;43.10
45803;DHT22;31504;51.716;9.184;2022-12-08T02:22:21;19.60;43.10
45803;DHT22;31504;51.716;9.184;2022-12-08T02:28:45;19.60;43.10
45803;DHT22;31504;51.716;9.184;2022-12-08T02:35:09;19.60;43.00
45803;DHT22;31504;51.716;9.184;2022-12-08T02:38:21;19.60;43.60
45803;DHT22;31504;51.716;9.184;2022-12-08T02:41:30;19.60;43.00
45803;DHT22;31504;51.716;9.184;2022-12-08T02:44:55;19.70;43.00
45803;DHT22;31504;51.716;9.184;2022-12-08T02:47:54;19.70;43.00
45803;DHT22;31504;51.716;9.184;2022-12-08T02:50:55;19.70;42.90
45803;DHT22;31504;51.716;9.184;2022-12-08T02:53:55;19.70;43.00
45803;DHT22;31504;51.716;9.184;2022-12-08T02:57:04;19.70;42.90
45803;DHT22;31504;51.716;9.184;2022-12-08T03:00:11;19.70;42.90
45803;DHT22;31504;51.716;9.184;2022-12-08T03:06:24;19.70;42.90
45803;DHT22;31504;51.716;9.184;2022-12-08T03:12:39;19.70;42.90
45803;DHT22;31504;51.716;9.184;2022-12-08T03:15:42;19.70;42.90
45803;DHT22;31504;51.716;9.184;2022-12-08T03:18:47;19.70;42.80
45803;DHT22;31504;51.716;9.184;2022-12-08T03:21:52;19.70;42.80
45803;DHT22;31504;51.716;9.184;2022-12-08T03:24:53;19.70;42.80
45803;DHT22;31504;51.716;9.184;2022-12-08T03:27:54;19.70;42.80
45803;DHT22;31504;51.716;9.184;2022-12-08T03:30:57;19.70;42.80
45803;DHT22;31504;51.716;9.184;2022-12-08T03:33:59;19.70;42.80
45803;DHT22;31504;51.716;9.184;2022-12-08T03:37:00;19.70;42.80
45803;DHT22;31504;51.716;9.184;2022-12-08T03:40:02;19.70;42.70
45803;DHT22;31504;51.716;9.184;2022-12-08T03:43:03;19.70;42.80
45803;DHT22;31504;51.716;9.184;2022-12-08T03:46:03;19.70;42.80
45803;DHT22;31504;51.716;9.184;2022-12-08T03:49:03;19.70;42.80
45803;DHT22;31504;51.716;9.184;2022-12-08T03:52:04;19.70;42.70
45803;DHT22;31504;51.716;9.184;2022-12-08T03:55:05;19.70;42.70
45803;DHT22;31504;51.716;9.184;2022-12-08T03:58:05;19.70;42.80
45803;DHT22;31504;51.716;9.184;2022-12-08T04:01:06;19.70;42.90
45803;DHT22;31504;51.716;9.184;2022-12-08T04:04:06;19.60;42.90
45803;DHT22;31504;51.716;9.184;2022-12-08T04:07:07;19.60;42.90
45803;DHT22;31504;51.716;9.184;2022-12-08T04:10:07;19.60;42.90
45803;DHT22;31504;51.716;9.184;2022-12-08T04:13:08;19.60;42.90
45803;DHT22;31504;51.716;9.184;2022-12-08T04:16:13;19.60;42.90
45803;DHT22;31504;51.716;9.184;2022-12-08T04:19:14;19.60;42.90
45803;DHT22;31504;51.716;9.184;2022-12-08T04:22:14;19.60;42.90
45803;DHT22;31504;51.716;9.184;2022-12-08T04:25:15;19.60;42.90
45803;DHT22;31504;51.716;9.184;2022-12-08T04:28:15;19.70;42.90
45803;DHT22;31504;51.716;9.184;2022-12-08T04:31:16;19.70;42.90
45803;DHT22;31504;51.716;9.184;2022-12-08T04:34:16;19.60;42.80
45803;DHT22;31504;51.716;9.184;2022-12-08T04:37:17;19.70;42.80
45803;DHT22;31504;51.716;9.184;2022-12-08T04:40:17;19.70;42.80
45803;DHT22;31504;51.716;9.184;2022-12-08T04:43:18;19.60;42.80
45803;DHT22;31504;51.716;9.184;2022-12-08T04:46:18;19.60;42.90
45803;DHT22;31504;51.716;9.184;2022-12-08T04:49:18;19.60;42.90
45803;DHT22;31504;51.716;9.184;2022-12-08T04:52:19;19.60;42.80
45803;DHT22;31504;51.716;9.184;2022-12-08T04:55:20;19.70;42.80
45803;DHT22;31504;51.716;9.184;2022-12-08T04:58:20;19.70;42.80
45803;DHT22;31504;51.716;9.184;2022-12-08T05:01:21;19.60;42.80
45803;DHT22;31504;51.716;9.184;2022-12-08T05:04:21;19.70;42.80
45803;DHT22;31504;51.716;9.184;2022-12-08T05:07:22;19.70;42.70
45803;DHT22;31504;51.716;9.184;2022-12-08T05:10:22;19.70;42.70
45803;DHT22;31504;51.716;9.184;2022-12-08T05:13:23;19.60;42.70
45803;DHT22;31504;51.716;9.184;2022-12-08T05:16:23;19.70;42.70
45803;DHT22;31504;51.716;9.184;2022-12-08T05:19:24;19.70;42.70
45803;DHT22;31504;51.716;9.184;2022-12-08T05:22:24;19.70;42.70
45803;DHT22;31504;51.716;9.184;2022-12-08T05:25:25;19.70;42.70
45803;DHT22;31504;51.716;9.184;2022-12-08T05:28:25;19.70;42.60
45803;DHT22;31504;51.716;9.184;2022-12-08T05:31:26;19.70;42.70
45803;DHT22;31504;51.716;9.184;2022-12-08T05:34:26;19.70;43.20
45803;DHT22;31504;51.716;9.184;2022-12-08T05:37:27;19.70;42.60
45803;DHT22;31504;51.716;9.184;2022-12-08T05:40:27;19.70;42.60
45803;DHT22;31504;51.716;9.184;2022-12-08T05:43:28;19.70;42.60
45803;DHT22;31504;51.716;9.184;2022-12-08T05:46:28;19.70;42.60
45803;DHT22;31504;51.716;9.184;2022-12-08T05:49:29;19.60;42.60
45803;DHT22;31504;51.716;9.184;2022-12-08T05:52:29;19.70;42.60
45803;DHT22;31504;51.716;9.184;2022-12-08T05:55:30;19.70;42.60
45803;DHT22;31504;51.716;9.184;2022-12-08T05:58:30;19.70;42.60
45803;DHT22;31504;51.716;9.184;2022-12-08T06:01:30;19.70;42.60
45803;DHT22;31504;51.716;9.184;2022-12-08T06:04:31;19.70;42.60
45803;DHT22;31504;51.716;9.184;2022-12-08T06:07:31;19.60;42.70
45803;DHT22;31504;51.716;9.184;2022-12-08T06:10:32;19.70;42.70
45803;DHT22;31504;51.716;9.184;2022-12-08T06:13:33;19.70;42.70
45803;DHT22;31504;51.716;9.184;2022-12-08T06:16:33;19.70;42.60
45803;DHT22;31504;51.716;9.184;2022-12-08T06:19:34;19.70;42.60
45803;DHT22;31504;51.716;9.184;2022-12-08T06:22:34;19.70;42.70
45803;DHT22;31504;51.716;9.184;2022-12-08T06:25:35;19.70;42.70
45803;DHT22;31504;51.716;9.184;2022-12-08T06:28:35;19.70;42.60
45803;DHT22;31504;51.716;9.184;2022-12-08T06:31:36;19.70;42.60
45803;DHT22;31504;51.716;9.184;2022-12-08T06:34:36;19.70;42.60
45803;DHT22;31504;51.716;9.184;2022-12-08T06:37:37;19.70;42.60
45803;DHT22;31504;51.716;9.184;2022-12-08T06:40:37;19.70;42.60
45803;DHT22;31504;51.716;9.184;2022-12-08T06:43:38;19.70;42.50
45803;DHT22;31504;51.716;9.184;2022-12-08T06:46:39;19.70;42.60
45803;DHT22;31504;51.716;9.184;2022-12-08T06:49:39;19.70;42.60
45803;DHT22;31504;51.716;9.184;2022-12-08T06:52:40;19.70;42.50
45803;DHT22;31504;51.716;9.184;2022-12-08T06:55:45;19.70;42.60
45803;DHT22;31504;51.716;9.184;2022-12-08T06:58:46;19.70;42.60
45803;DHT22;31504;51.716;9.184;2022-12-08T07:01:46;19.70;42.50
45803;DHT22;31504;51.716;9.184;2022-12-08T07:04:47;19.70;42.60
45803;DHT22;31504;51.716;9.184;2022-12-08T07:07:47;19.70;42.60
45803;DHT22;31504;51.716;9.184;2022-12-08T07:10:48;19.70;42.60
45803;DHT22;31504;51.716;9.184;2022-12-08T07:13:49;19.70;42.60
45803;DHT22;31504;51.716;9.184;2022-12-08T07:16:49;19.70;42.50
45803;DHT22;31504;51.716;9.184;2022-12-08T07:19:50;19.70;42.50
45803;DHT22;31504;51.716;9.184;2022-12-08T07:22:51;19.70;42.60
45803;DHT22;31504;51.716;9.184;2022-12-08T07:25:51;19.70;42.60
45803;DHT22;31504;51.716;9.184;2022-12-08T07:28:52;19.60;43.30
45803;DHT22;31504;51.716;9.184;2022-12-08T07:31:52;19.70;42.90
45803;DHT22;31504;51.716;9.184;2022-12-08T07:34:53;19.70;42.90
45803;DHT22;31504;51.716;9.184;2022-12-08T07:37:53;19.70;43.00
45803;DHT22;31504;51.716;9.184;2022-12-08T07:40:54;19.70;43.10
45803;DHT22;31504;51.716;9.184;2022-12-08T07:43:55;19.70;43.20
45803;DHT22;31504;51.716;9.184;2022-12-08T07:46:55;19.70;43.20
45803;DHT22;31504;51.716;9.184;2022-12-08T07:49:56;19.70;43.30
45803;DHT22;31504;51.716;9.184;2022-12-08T07:52:56;19.70;43.30
45803;DHT22;31504;51.716;9.184;2022-12-08T07:55:57;19.70;43.40
45803;DHT22;31504;51.716;9.184;2022-12-08T07:58:57;19.70;43.40
45803;DHT22;31504;51.716;9.184;2022-12-08T08:01:57;19.70;43.40
45803;DHT22;31504;51.716;9.184;2022-12-08T08:04:58;19.70;43.50
45803;DHT22;31504;51.716;9.184;2022-12-08T08:07:58;19.70;43.50
45803;DHT22;31504;51.716;9.184;2022-12-08T08:10:59;19.60;43.50
45803;DHT22;31504;51.716;9.184;2022-12-08T08:13:59;19.60;43.60
45803;DHT22;31504;51.716;9.184;2022-12-08T08:17:00;19.70;43.60
45803;DHT22;31504;51.716;9.184;2022-12-08T08:20:01;19.70;43.60
45803;DHT22;31504;51.716;9.184;2022-12-08T08:23:01;19.70;43.60
45803;DHT22;31504;51.716;9.184;2022-12-08T08:26:02;19.70;43.60
45803;DHT22;31504;51.716;9.184;2022-12-08T08:29:03;19.70;43.60
45803;DHT22;31504;51.716;9.184;2022-12-08T08:32:04;19.60;43.60
45803;DHT22;31504;51.716;9.184;2022-12-08T08:35:05;19.70;43.60
45803;DHT22;31504;51.716;9.184;2022-12-08T08:38:05;19.60;43.50
45803;DHT22;31504;51.716;9.184;2022-12-08T08:41:06;19.70;43.60
45803;DHT22;31504;51.716;9.184;2022-12-08T08:44:07;19.70;43.60
45803;DHT22;31504;51.716;9.184;2022-12-08T08:47:07;19.70;43.50
45803;DHT22;31504;51.716;9.184;2022-12-08T08:50:08;19.70;43.50
45803;DHT22;31504;51.716;9.184;2022-12-08T08:53:08;19.70;43.50
45803;DHT22;31504;51.716;9.184;2022-12-08T08:56:10;19.70;43.60
45803;DHT22;31504;51.716;9.184;2022-12-08T08:59:10;19.70;43.60
45803;DHT22;31504;51.716;9.184;2022-12-08T09:02:14;19.70;43.60
45803;DHT22;31504;51.716;9.184;2022-12-08T09:05:15;19.70;43.60
45803;DHT22;31504;51.716;9.184;2022-12-08T09:08:16;19.60;43.60
45803;DHT22;31504;51.716;9.184;2022-12-08T09:11:16;19.70;43.70
45803;DHT22;31504;51.716;9.184;2022-12-08T09:14:17;19.70;43.60
45803;DHT22;31504;51.716;9.184;2022-12-08T09:17:18;19.70;43.60
45803;DHT22;31504;51.716;9.184;2022-12-08T09:20:18;19.70;43.60
45803;DHT22;31504;51.716;9.184;2022-12-08T09:23:19;19.70;43.70
45803;DHT22;31504;51.716;9.184;2022-12-08T09:26:19;19.70;43.70
45803;DHT22;31504;51.716;9.184;2022-12-08T09:29:23;19.70;43.70
45803;DHT22;31504;51.716;9.184;2022-12-08T09:32:24;19.70;43.70
45803;DHT22;31504;51.716;9.184;2022-12-08T09:35:24;19.70;43.80
45803;DHT22;31504;51.716;9.184;2022-12-08T09:38:25;19.70;44.00
45803;DHT22;31504;51.716;9.184;2022-12-08T09:41:30;19.70;44.00
45803;DHT22;31504;51.716;9.184;2022-12-08T09:44:42;19.70;44.20
45803;DHT22;31504;51.716;9.184;2022-12-08T09:48:06;19.70;44.30
45803;DHT22;31504;51.716;9.184;2022-12-08T09:51:05;19.70;44.30
45803;DHT22;31504;51.716;9.184;2022-12-08T09:54:10;19.70;44.30
45803;DHT22;31504;51.716;9.184;2022-12-08T09:57:16;19.70;44.20
45803;DHT22;31504;51.716;9.184;2022-12-08T10:00:17;19.70;44.30
45803;DHT22;31504;51.716;9.184;2022-12-08T10:03:18;19.70;44.20
45803;DHT22;31504;51.716;9.184;2022-12-08T10:09:40;19.70;44.20
45803;DHT22;31504;51.716;9.184;2022-12-08T10:12:53;19.80;44.30
45803;DHT22;31504;51.716;9.184;2022-12-08T10:19:14;19.80;44.20
45803;DHT22;31504;51.716;9.184;2022-12-08T10:22:21;19.80;44.20
45803;DHT22;31504;51.716;9.184;2022-12-08T10:25:44;19.80;44.10
45803;DHT22;31504;51.716;9.184;2022-12-08T10:28:43;19.80;44.00
45803;DHT22;31504;51.716;9.184;2022-12-08T10:31:43;19.80;44.00
45803;DHT22;31504;51.716;9.184;2022-12-08T10:35:00;19.80;43.90
45803;DHT22;31504;51.716;9.184;2022-12-08T10:38:01;19.80;43.90
45803;DHT22;31504;51.716;9.184;2022-12-08T10:44:09;19.80;43.70
45803;DHT22;31504;51.716;9.184;2022-12-08T10:47:10;19.80;43.80
45803;DHT22;31504;51.716;9.184;2022-12-08T10:53:24;19.80;43.80
45803;DHT22;31504;51.716;9.184;2022-12-08T10:56:26;19.80;43.90
45803;DHT22;31504;51.716;9.184;2022-12-08T10:59:27;19.70;43.80
45803;DHT22;31504;51.716;9.184;2022-12-08T11:02:28;19.70;43.70
45803;DHT22;31504;51.716;9.184;2022-12-08T11:05:32;19.80;43.80
45803;DHT22;31504;51.716;9.184;2022-12-08T11:08:33;19.70;43.60
45803;DHT22;31504;51.716;9.184;2022-12-08T11:11:56;19.70;43.60
45803;DHT22;31504;51.716;9.184;2022-12-08T11:14:59;19.70;43.60
45803;DHT22;31504;51.716;9.184;2022-12-08T11:18:06;19.70;43.60
45803;DHT22;31504;51.716;9.184;2022-12-08T11:21:09;19.70;43.60
45803;DHT22;31504;51.716;9.184;2022-12-08T11:27:13;19.70;43.40
45803;DHT22;31504;51.716;9.184;2022-12-08T11:30:24;19.70;43.40
45803;DHT22;31504;51.716;9.184;2022-12-08T11:33:25;19.70;43.40
45803;DHT22;31504;51.716;9.184;2022-12-08T11:36:27;19.80;43.40
45803;DHT22;31504;51.716;9.184;2022-12-08T11:39:29;19.80;43.40
45803;DHT22;31504;51.716;9.184;2022-12-08T11:42:33;19.80;43.50
45803;DHT22;31504;51.716;9.184;2022-12-08T11:45:35;19.80;43.50
45803;DHT22;31504;51.716;9.184;2022-12-08T11:48:38;19.80;43.50
45803;DHT22;31504;51.716;9.184;2022-12-08T11:51:46;19.80;43.50
45803;DHT22;31504;51.716;9.184;2022-12-08T11:54:49;19.80;43.50
45803;DHT22;31504;51.716;9.184;2022-12-08T11:57:51;19.80;43.50
45803;DHT22;31504;51.716;9.184;2022-12-08T12:00:53;19.80;43.50
45803;DHT22;31504;51.716;9.184;2022-12-08T12:03:57;19.80;43.60
45803;DHT22;31504;51.716;9.184;2022-12-08T12:07:07;19.80;43.50
45803;DHT22;31504;51.716;9.184;2022-12-08T12:19:50;19.80;43.70
45803;DHT22;31504;51.716;9.184;2022-12-08T12:22:54;19.80;43.80
45803;DHT22;31504;51.716;9.184;2022-12-08T12:25:59;19.80;43.80
45803;DHT22;31504;51.716;9.184;2022-12-08T12:29:34;19.80;43.70
45803;DHT22;31504;51.716;9.184;2022-12-08T12:32:38;19.80;43.70
45803;DHT22;31504;51.716;9.184;2022-12-08T12:35:42;19.80;43.80
45803;DHT22;31504;51.716;9.184;2022-12-08T12:38:48;19.80;43.70
45803;DHT22;31504;51.716;9.184;2022-12-08T12:42:03;19.80;43.70
45803;DHT22;31504;51.716;9.184;2022-12-08T12:48:19;19.80;43.60
45803;DHT22;31504;51.716;9.184;2022-12-08T12:54:29;19.80;43.60
45803;DHT22;31504;51.716;9.184;2022-12-08T13:00:36;19.80;43.70
45803;DHT22;31504;51.716;9.184;2022-12-08T13:03:41;19.80;43.70
45803;DHT22;31504;51.716;9.184;2022-12-08T13:06:44;19.80;43.70
45803;DHT22;31504;51.716;9.184;2022-12-08T13:09:46;19.80;43.70
45803;DHT22;31504;51.716;9.184;2022-12-08T13:13:27;19.80;43.80
45803;DHT22;31504;51.716;9.184;2022-12-08T13:16:21;19.80;43.90
45803;DHT22;31504;51.716;9.184;2022-12-08T13:19:23;19.80;44.00
45803;DHT22;31504;51.716;9.184;2022-12-08T13:25:45;19.80;44.00
45803;DHT22;31504;51.716;9.184;2022-12-08T13:34:58;19.80;44.30
45803;DHT22;31504;51.716;9.184;2022-12-08T13:37:59;19.80;44.40
45803;DHT22;31504;51.716;9.184;2022-12-08T13:41:00;19.80;44.40
45803;DHT22;31504;51.716;9.184;2022-12-08T13:44:12;19.80;44.50
45803;DHT22;31504;51.716;9.184;2022-12-08T13:47:21;19.90;44.60
45803;DHT22;31504;51.716;9.184;2022-12-08T13:50:24;19.80;44.60
45803;DHT22;31504;51.716;9.184;2022-12-08T13:53:27;19.80;44.60
45803;DHT22;31504;51.716;9.184;2022-12-08T13:56:28;19.80;44.60
45803;DHT22;31504;51.716;9.184;2022-12-08T13:59:30;19.80;44.50
45803;DHT22;31504;51.716;9.184;2022-12-08T14:02:34;19.70;44.30
45803;DHT22;31504;51.716;9.184;2022-12-08T14:05:39;19.70;43.90
45803;DHT22;31504;51.716;9.184;2022-12-08T14:08:40;19.80;43.70
45803;DHT22;31504;51.716;9.184;2022-12-08T14:11:43;19.80;43.40
45803;DHT22;31504;51.716;9.184;2022-12-08T14:14:47;19.90;43.40
45803;DHT22;31504;51.716;9.184;2022-12-08T14:17:55;19.90;43.30
45803;DHT22;31504;51.716;9.184;2022-12-08T14:21:00;19.90;43.50
45803;DHT22;31504;51.716;9.184;2022-12-08T14:24:01;19.90;43.50
45803;DHT22;31504;51.716;9.184;2022-12-08T14:27:06;19.90;43.50
45803;DHT22;31504;51.716;9.184;2022-12-08T14:33:14;19.90;43.70
45803;DHT22;31504;51.716;9.184;2022-12-08T14:36:16;19.90;43.70
45803;DHT22;31504;51.716;9.184;2022-12-08T14:39:17;19.90;43.80
45803;DHT22;31504;51.716;9.184;2022-12-08T14:42:22;19.90;43.90
45803;DHT22;31504;51.716;9.184;2022-12-08T14:45:23;19.90;43.90
45803;DHT22;31504;51.716;9.184;2022-12-08T14:51:30;19.90;43.90
45803;DHT22;31504;51.716;9.184;2022-12-08T14:54:32;19.80;43.80
45803;DHT22;31504;51.716;9.184;2022-12-08T14:57:32;19.80;43.70
45803;DHT22;31504;51.716;9.184;2022-12-08T15:00:33;19.90;43.80
45803;DHT22;31504;51.716;9.184;2022-12-08T15:03:34;19.90;43.70
45803;DHT22;31504;51.716;9.184;2022-12-08T15:06:35;19.90;43.80
45803;DHT22;31504;51.716;9.184;2022-12-08T15:09:37;19.80;43.70
45803;DHT22;31504;51.716;9.184;2022-12-08T15:12:38;19.90;43.70
45803;DHT22;31504;51.716;9.184;2022-12-08T15:15:46;19.80;43.50
45803;DHT22;31504;51.716;9.184;2022-12-08T15:18:50;19.90;43.50
45803;DHT22;31504;51.716;9.184;2022-12-08T15:22:16;19.90;43.50
45803;DHT22;31504;51.716;9.184;2022-12-08T15:25:19;19.90;43.50
45803;DHT22;31504;51.716;9.184;2022-12-08T15:28:21;19.90;43.50
45803;DHT22;31504;51.716;9.184;2022-12-08T15:31:21;19.90;43.60
45803;DHT22;31504;51.716;9.184;2022-12-08T15:34:22;19.90;43.60
45803;DHT22;31504;51.716;9.184;2022-12-08T15:37:23;19.90;43.60
45803;DHT22;31504;51.716;9.184;2022-12-08T15:40:25;19.90;43.70
45803;DHT22;31504;51.716;9.184;2022-12-08T15:43:26;19.90;43.70
45803;DHT22;31504;51.716;9.184;2022-12-08T15:46:26;19.90;43.70
45803;DHT22;31504;51.716;9.184;2022-12-08T15:49:27;19.90;43.80
45803;DHT22;31504;51.716;9.184;2022-12-08T15:52:27;19.90;44.40
45803;DHT22;31504;51.716;9.184;2022-12-08T15:55:28;19.90;43.90
45803;DHT22;31504;51.716;9.184;2022-12-08T15:58:28;19.90;43.90
45803;DHT22;31504;51.716;9.184;2022-12-08T16:01:29;19.90;44.00
45803;DHT22;31504;51.716;9.184;2022-12-08T16:04:29;19.90;44.10
45803;DHT22;31504;51.716;9.184;2022-12-08T16:07:30;19.90;44.20
45803;DHT22;31504;51.716;9.184;2022-12-08T16:10:30;19.90;44.20
45803;DHT22;31504;51.716;9.184;2022-12-08T16:13:31;19.90;44.20
45803;DHT22;31504;51.716;9.184;2022-12-08T16:16:50;19.90;44.30
45803;DHT22;31504;51.716;9.184;2022-12-08T16:19:50;19.90;44.40
45803;DHT22;31504;51.716;9.184;2022-12-08T16:22:51;19.90;44.50
45803;DHT22;31504;51.716;9.184;2022-12-08T16:25:51;19.90;44.50
45803;DHT22;31504;51.716;9.184;2022-12-08T16:28:52;19.90;44.60
45803;DHT22;31504;51.716;9.184;2022-12-08T16:31:52;19.90;44.60
45803;DHT22;31504;51.716;9.184;2022-12-08T16:34:53;19.90;44.70
45803;DHT22;31504;51.716;9.184;2022-12-08T16:37:54;19.90;44.90
45803;DHT22;31504;51.716;9.184;2022-12-08T16:40:54;19.90;44.90
45803;DHT22;31504;51.716;9.184;2022-12-08T16:44:13;19.90;45.70
45803;DHT22;31504;51.716;9.184;2022-12-08T16:47:14;19.90;45.00
45803;DHT22;31504;51.716;9.184;2022-12-08T16:50:15;19.90;45.30
45803;DHT22;31504;51.716;9.184;2022-12-08T16:53:16;19.90;45.50
45803;DHT22;31504;51.716;9.184;2022-12-08T16:56:18;20.00;45.40
45803;DHT22;31504;51.716;9.184;2022-12-08T16:59:19;19.90;45.20
45803;DHT22;31504;51.716;9.184;2022-12-08T17:02:19;19.90;45.20
45803;DHT22;31504;51.716;9.184;2022-12-08T17:05:20;19.90;45.20
45803;DHT22;31504;51.716;9.184;2022-12-08T17:08:21;20.00;45.20
45803;DHT22;31504;51.716;9.184;2022-12-08T17:11:22;20.00;45.10
45803;DHT22;31504;51.716;9.184;2022-12-08T17:14:25;20.00;45.20
45803;DHT22;31504;51.716;9.184;2022-12-08T17:17:26;19.90;45.10
45803;DHT22;31504;51.716;9.184;2022-12-08T17:20:26;19.90;45.20
45803;DHT22;31504;51.716;9.184;2022-12-08T17:23:27;19.90;45.80
45803;DHT22;31504;51.716;9.184;2022-12-08T17:26:28;19.90;45.20
45803;DHT22;31504;51.716;9.184;2022-12-08T17:29:31;19.90;45.20
45803;DHT22;31504;51.716;9.184;2022-12-08T17:32:32;19.90;45.20
45803;DHT22;31504;51.716;9.184;2022-12-08T17:35:33;19.90;45.10
45803;DHT22;31504;51.716;9.184;2022-12-08T17:38:33;19.90;45.10
45803;DHT22;31504;51.716;9.184;2022-12-08T17:41:34;19.90;45.00
45803;DHT22;31504;51.716;9.184;2022-12-08T17:44:34;19.90;45.00
45803;DHT22;31504;51.716;9.184;2022-12-08T17:47:35;19.90;44.90
45803;DHT22;31504;51.716;9.184;2022-12-08T17:50:37;20.00;44.90
45803;DHT22;31504;51.716;9.184;2022-12-08T17:53:37;19.90;44.80
45803;DHT22;31504;51.716;9.184;2022-12-08T17:56:39;19.90;44.80
45803;DHT22;31504;51.716;9.184;2022-12-08T17:59:40;19.90;44.80
45803;DHT22;31504;51.716;9.184;2022-12-08T18:02:40;19.90;44.80
45803;DHT22;31504;51.716;9.184;2022-12-08T18:05:41;19.90;44.80
45803;DHT22;31504;51.716;9.184;2022-12-08T18:08:42;19.90;44.80
45803;DHT22;31504;51.716;9.184;2022-12-08T18:11:42;19.90;44.80
45803;DHT22;31504;51.716;9.184;2022-12-08T18:14:43;19.90;44.80
45803;DHT22;31504;51.716;9.184;2022-12-08T18:17:45;19.90;44.70
45803;DHT22;31504;51.716;9.184;2022-12-08T18:20:46;19.90;44.70
45803;DHT22;31504;51.716;9.184;2022-12-08T18:23:46;19.90;44.70
45803;DHT22;31504;51.716;9.184;2022-12-08T18:26:47;19.90;44.70
45803;DHT22;31504;51.716;9.184;2022-12-08T18:29:47;19.90;44.60
45803;DHT22;31504;51.716;9.184;2022-12-08T18:32:48;19.90;44.70
45803;DHT22;31504;51.716;9.184;2022-12-08T18:35:48;19.90;44.70
45803;DHT22;31504;51.716;9.184;2022-12-08T18:38:51;19.90;44.60
45803;DHT22;31504;51.716;9.184;2022-12-08T18:41:51;19.90;44.60
45803;DHT22;31504;51.716;9.184;2022-12-08T18:44:55;19.90;44.60
45803;DHT22;31504;51.716;9.184;2022-12-08T18:48:01;19.90;44.50
45803;DHT22;31504;51.716;9.184;2022-12-08T18:51:02;19.90;44.50
45803;DHT22;31504;51.716;9.184;2022-12-08T18:54:02;19.90;44.40
45803;DHT22;31504;51.716;9.184;2022-12-08T18:57:03;19.90;44.60
45803;DHT22;31504;51.716;9.184;2022-12-08T19:00:06;19.90;44.60
45803;DHT22;31504;51.716;9.184;2022-12-08T19:03:06;19.90;44.70
45803;DHT22;31504;51.716;9.184;2022-12-08T19:06:07;19.90;44.70
45803;DHT22;31504;51.716;9.184;2022-12-08T19:09:08;19.90;44.60
45803;DHT22;31504;51.716;9.184;2022-12-08T19:12:09;19.90;44.50
45803;DHT22;31504;51.716;9.184;2022-12-08T19:15:12;19.90;44.60
45803;DHT22;31504;51.716;9.184;2022-12-08T19:18:12;20.00;44.60
45803;DHT22;31504;51.716;9.184;2022-12-08T19:21:13;19.90;44.50
45803;DHT22;31504;51.716;9.184;2022-12-08T19:24:14;19.90;44.40
45803;DHT22;31504;51.716;9.184;2022-12-08T19:27:14;20.00;44.40
45803;DHT22;31504;51.716;9.184;2022-12-08T19:30:15;19.90;44.50
45803;DHT22;31504;51.716;9.184;2022-12-08T19:33:15;19.90;44.50
45803;DHT22;31504;51.716;9.184;2022-12-08T19:36:17;19.90;44.50
45803;DHT22;31504;51.716;9.184;2022-12-08T19:39:20;19.90;44.50
45803;DHT22;31504;51.716;9.184;2022-12-08T19:42:39;19.90;44.40
45803;DHT22;31504;51.716;9.184;2022-12-08T19:45:58;19.90;44.40
45803;DHT22;31504;51.716;9.184;2022-12-08T19:48:59;19.90;44.40
45803;DHT22;31504;51.716;9.184;2022-12-08T19:51:59;19.90;44.40
45803;DHT22;31504;51.716;9.184;2022-12-08T19:55:00;19.90;44.40
45803;DHT22;31504;51.716;9.184;2022-12-08T19:58:01;20.00;45.00
45803;DHT22;31504;51.716;9.184;2022-12-08T20:01:02;19.90;44.40
45803;DHT22;31504;51.716;9.184;2022-12-08T20:04:03;19.90;44.40
45803;DHT22;31504;51.716;9.184;2022-12-08T20:07:03;20.00;44.40
45803;DHT22;31504;51.716;9.184;2022-12-08T20:10:06;19.90;44.40
45803;DHT22;31504;51.716;9.184;2022-12-08T20:13:07;19.90;44.20
45803;DHT22;31504;51.716;9.184;2022-12-08T20:16:27;19.90;44.20
45803;DHT22;31504;51.716;9.184;2022-12-08T20:19:27;19.90;44.30
45803;DHT22;31504;51.716;9.184;2022-12-08T20:22:28;19.90;44.30